sensor_id;sensor_type;location;lat;lon;timestamp;pressure;altitude;pressure_sealevel;temperature;humidity
54592;BME280;40488;48.558;18.150;2022-07-06T00:02:23;99611.19;;;18.80;77.90
54592;BME280;40488;48.558;18.150;2022-07-06T00:04:52;99621.44;;;18.83;78.10
54592;BME280;40488;48.558;18.150;2022-07-06T00:07:21;99624.28;;;18.75;78.23
54592;BME280;40488;48.558;18.150;2022-07-06T00:09:49;99623.25;;;18.81;78.34
54592;BME280;40488;48.558;18.150;2022-07-06T00:12:18;99624.72;;;18.88;78.23
54592;BME280;40488;48.558;18.150;2022-07-06T00:14:47;99625.50;;;18.90;78.38
54592;BME280;40488;48.558;18.150;2022-07-06T00:17:15;99624.72;;;18.88;78.33
54592;BME280;40488;48.558;18.150;2022-07-06T00:19:46;99617.72;;;18.90;78.39
54592;BME280;40488;48.558;18.150;2022-07-06T00:22:14;99613.19;;;18.96;78.44
54592;BME280;40488;48.558;18.150;2022-07-06T00:24:43;99612.03;;;19.05;78.36
54592;BME280;40488;48.558;18.150;2022-07-06T00:27:11;99600.47;;;19.13;77.92
54592;BME280;40488;48.558;18.150;2022-07-06T00:29:40;99606.41;;;19.17;77.74
54592;BME280;40488;48.558;18.150;2022-07-06T00:32:10;99611.34;;;19.23;77.34
54592;BME280;40488;48.558;18.150;2022-07-06T00:34:39;99616.41;;;19.26;77.22
54592;BME280;40488;48.558;18.150;2022-07-06T00:37:10;99609.44;;;19.28;77.08
54592;BME280;40488;48.558;18.150;2022-07-06T00:39:42;99610.28;;;19.28;76.54
54592;BME280;40488;48.558;18.150;2022-07-06T00:42:10;99611.13;;;19.29;76.57
54592;BME280;40488;48.558;18.150;2022-07-06T00:44:39;99610.16;;;19.31;76.40
54592;BME280;40488;48.558;18.150;2022-07-06T00:47:08;99622.06;;;19.37;76.36
54592;BME280;40488;48.558;18.150;2022-07-06T00:49:37;99610.81;;;19.38;76.08
54592;BME280;40488;48.558;18.150;2022-07-06T00:52:16;99599.59;;;19.37;75.96
54592;BME280;40488;48.558;18.150;2022-07-06T00:54:44;99595.34;;;19.35;75.87
54592;BME280;40488;48.558;18.150;2022-07-06T00:57:13;99593.66;;;19.34;75.67
54592;BME280;40488;48.558;18.150;2022-07-06T00:59:42;99584.16;;;19.36;75.97
54592;BME280;40488;48.558;18.150;2022-07-06T01:02:11;99589.31;;;19.34;75.98
54592;BME280;40488;48.558;18.150;2022-07-06T01:04:39;99587.44;;;19.39;75.70
54592;BME280;40488;48.558;18.150;2022-07-06T01:07:08;99587.34;;;19.43;75.68
54592;BME280;40488;48.558;18.150;2022-07-06T01:09:38;99598.41;;;19.46;75.60
54592;BME280;40488;48.558;18.150;2022-07-06T01:12:07;99589.81;;;19.46;75.43
54592;BME280;40488;48.558;18.150;2022-07-06T01:14:36;99588.19;;;19.43;75.38
54592;BME280;40488;48.558;18.150;2022-07-06T01:17:06;99592.41;;;19.46;75.35
54592;BME280;40488;48.558;18.150;2022-07-06T01:19:35;99591.66;;;19.42;75.35
54592;BME280;40488;48.558;18.150;2022-07-06T01:22:05;99590.63;;;19.46;75.25
54592;BME280;40488;48.558;18.150;2022-07-06T01:24:34;99596.84;;;19.42;75.10
54592;BME280;40488;48.558;18.150;2022-07-06T01:27:03;99606.59;;;19.34;75.45
54592;BME280;40488;48.558;18.150;2022-07-06T01:29:32;99606.84;;;19.28;75.24
54592;BME280;40488;48.558;18.150;2022-07-06T01:32:00;99619.44;;;19.14;75.39
54592;BME280;40488;48.558;18.150;2022-07-06T01:34:29;99612.03;;;19.05;75.63
54592;BME280;40488;48.558;18.150;2022-07-06T01:36:58;99623.94;;;18.86;76.21
54592;BME280;40488;48.558;18.150;2022-07-06T01:39:31;99624.44;;;18.70;76.33
54592;BME280;40488;48.558;18.150;2022-07-06T01:41:59;99620.03;;;18.48;76.88
54592;BME280;40488;48.558;18.150;2022-07-06T01:44:28;99624.66;;;18.38;77.11
54592;BME280;40488;48.558;18.150;2022-07-06T01:46:58;99615.78;;;18.45;77.56
54592;BME280;40488;48.558;18.150;2022-07-06T01:49:28;99624.63;;;18.40;77.42
54592;BME280;40488;48.558;18.150;2022-07-06T01:51:56;99622.75;;;18.43;77.71
54592;BME280;40488;48.558;18.150;2022-07-06T01:54:25;99626.25;;;18.42;77.57
54592;BME280;40488;48.558;18.150;2022-07-06T01:56:55;99631.59;;;18.38;77.60
54592;BME280;40488;48.558;18.150;2022-07-06T01:59:25;99633.63;;;18.28;77.59
54592;BME280;40488;48.558;18.150;2022-07-06T02:01:54;99630.53;;;18.17;77.65
54592;BME280;40488;48.558;18.150;2022-07-06T02:04:23;99629.03;;;18.10;77.85
54592;BME280;40488;48.558;18.150;2022-07-06T02:06:51;99633.19;;;17.88;78.19
54592;BME280;40488;48.558;18.150;2022-07-06T02:09:20;99637.13;;;17.72;78.44
54592;BME280;40488;48.558;18.150;2022-07-06T02:11:49;99634.69;;;17.67;78.81
54592;BME280;40488;48.558;18.150;2022-07-06T02:14:19;99630.38;;;17.68;78.88
54592;BME280;40488;48.558;18.150;2022-07-06T02:16:48;99638.84;;;17.73;78.75
54592;BME280;40488;48.558;18.150;2022-07-06T02:19:18;99635.44;;;17.71;78.67
54592;BME280;40488;48.558;18.150;2022-07-06T02:21:46;99636.63;;;17.61;78.77
54592;BME280;40488;48.558;18.150;2022-07-06T02:24:15;99640.31;;;17.51;78.85
54592;BME280;40488;48.558;18.150;2022-07-06T02:26:43;99641.56;;;17.37;78.70
54592;BME280;40488;48.558;18.150;2022-07-06T02:29:12;99635.00;;;17.27;79.07
54592;BME280;40488;48.558;18.150;2022-07-06T02:31:43;99635.81;;;17.28;79.12
54592;BME280;40488;48.558;18.150;2022-07-06T02:34:12;99640.53;;;17.43;79.61
54592;BME280;40488;48.558;18.150;2022-07-06T02:36:40;99634.03;;;17.61;79.80
54592;BME280;40488;48.558;18.150;2022-07-06T02:39:09;99637.84;;;17.77;80.00
54592;BME280;40488;48.558;18.150;2022-07-06T02:41:39;99641.63;;;17.93;79.85
54592;BME280;40488;48.558;18.150;2022-07-06T02:44:08;99635.19;;;18.06;79.83
54592;BME280;40488;48.558;18.150;2022-07-06T02:46:38;99629.66;;;18.18;79.84
54592;BME280;40488;48.558;18.150;2022-07-06T02:49:09;99642.25;;;18.27;79.50
54592;BME280;40488;48.558;18.150;2022-07-06T02:51:37;99645.38;;;18.37;79.41
54592;BME280;40488;48.558;18.150;2022-07-06T02:54:06;99648.59;;;18.43;79.13
54592;BME280;40488;48.558;18.150;2022-07-06T02:56:35;99646.75;;;18.48;78.92
54592;BME280;40488;48.558;18.150;2022-07-06T02:59:03;99648.31;;;18.52;78.46
54592;BME280;40488;48.558;18.150;2022-07-06T03:01:39;99650.31;;;18.44;78.21
54592;BME280;40488;48.558;18.150;2022-07-06T03:04:09;99657.38;;;18.39;78.05
54592;BME280;40488;48.558;18.150;2022-07-06T03:06:38;99661.94;;;18.31;78.08
54592;BME280;40488;48.558;18.150;2022-07-06T03:09:07;99660.34;;;18.27;78.10
54592;BME280;40488;48.558;18.150;2022-07-06T03:11:37;99659.56;;;18.25;78.07
54592;BME280;40488;48.558;18.150;2022-07-06T03:14:05;99669.97;;;18.22;78.21
54592;BME280;40488;48.558;18.150;2022-07-06T03:16:37;99672.63;;;18.21;78.09
54592;BME280;40488;48.558;18.150;2022-07-06T03:19:06;99673.44;;;18.21;78.26
54592;BME280;40488;48.558;18.150;2022-07-06T03:21:37;99670.91;;;18.20;78.10
54592;BME280;40488;48.558;18.150;2022-07-06T03:24:06;99671.69;;;18.23;77.95
54592;BME280;40488;48.558;18.150;2022-07-06T03:26:35;99666.41;;;18.26;78.15
54592;BME280;40488;48.558;18.150;2022-07-06T03:29:04;99665.47;;;18.29;78.00
54592;BME280;40488;48.558;18.150;2022-07-06T03:31:32;99667.06;;;18.33;77.77
54592;BME280;40488;48.558;18.150;2022-07-06T03:34:02;99669.50;;;18.37;77.65
54592;BME280;40488;48.558;18.150;2022-07-06T03:36:30;99671.84;;;18.45;77.86
54592;BME280;40488;48.558;18.150;2022-07-06T03:39:07;99667.13;;;18.57;77.33
54592;BME280;40488;48.558;18.150;2022-07-06T03:41:37;99661.66;;;18.66;77.00
54592;BME280;40488;48.558;18.150;2022-07-06T03:44:07;99664.91;;;18.71;76.77
54592;BME280;40488;48.558;18.150;2022-07-06T03:46:36;99662.19;;;18.76;76.85
54592;BME280;40488;48.558;18.150;2022-07-06T03:49:05;99659.59;;;18.76;76.62
54592;BME280;40488;48.558;18.150;2022-07-06T03:51:34;99659.53;;;18.78;76.69
54592;BME280;40488;48.558;18.150;2022-07-06T03:54:03;99662.81;;;18.83;76.46
54592;BME280;40488;48.558;18.150;2022-07-06T03:56:33;99664.28;;;18.90;76.18
54592;BME280;40488;48.558;18.150;2022-07-06T03:59:13;99664.06;;;18.96;75.90
54592;BME280;40488;48.558;18.150;2022-07-06T04:01:42;99672.66;;;18.98;75.75
54592;BME280;40488;48.558;18.150;2022-07-06T04:04:13;99668.94;;;19.05;75.70
54592;BME280;40488;48.558;18.150;2022-07-06T04:06:44;99667.13;;;19.07;75.48
54592;BME280;40488;48.558;18.150;2022-07-06T04:09:14;99657.41;;;19.13;75.38
54592;BME280;40488;48.558;18.150;2022-07-06T04:11:44;99658.16;;;19.17;75.01
54592;BME280;40488;48.558;18.150;2022-07-06T04:14:12;99665.75;;;19.21;75.04
54592;BME280;40488;48.558;18.150;2022-07-06T04:16:41;99658.59;;;19.28;75.13
54592;BME280;40488;48.558;18.150;2022-07-06T04:19:10;99663.53;;;19.34;74.75
54592;BME280;40488;48.558;18.150;2022-07-06T04:21:39;99666.97;;;19.34;74.64
54592;BME280;40488;48.558;18.150;2022-07-06T04:24:08;99670.25;;;19.41;74.78
54592;BME280;40488;48.558;18.150;2022-07-06T04:26:37;99666.44;;;19.50;74.36
54592;BME280;40488;48.558;18.150;2022-07-06T04:29:08;99666.19;;;19.57;74.27
54592;BME280;40488;48.558;18.150;2022-07-06T04:31:37;99663.13;;;19.69;74.03
54592;BME280;40488;48.558;18.150;2022-07-06T04:34:06;99661.06;;;19.77;73.45
54592;BME280;40488;48.558;18.150;2022-07-06T04:36:36;99666.13;;;19.80;72.73
54592;BME280;40488;48.558;18.150;2022-07-06T04:39:05;99668.44;;;19.88;72.25
54592;BME280;40488;48.558;18.150;2022-07-06T04:41:34;99672.25;;;20.01;71.89
54592;BME280;40488;48.558;18.150;2022-07-06T04:44:03;99670.84;;;20.14;71.36
54592;BME280;40488;48.558;18.150;2022-07-06T04:46:33;99673.06;;;20.25;70.87
54592;BME280;40488;48.558;18.150;2022-07-06T04:49:02;99666.75;;;20.30;70.08
54592;BME280;40488;48.558;18.150;2022-07-06T04:51:31;99665.44;;;20.42;69.55
54592;BME280;40488;48.558;18.150;2022-07-06T04:54:01;99666.72;;;20.52;69.27
54592;BME280;40488;48.558;18.150;2022-07-06T04:56:33;99671.28;;;20.67;69.24
54592;BME280;40488;48.558;18.150;2022-07-06T04:59:02;99672.47;;;20.80;68.59
54592;BME280;40488;48.558;18.150;2022-07-06T05:01:31;99671.22;;;20.89;68.02
54592;BME280;40488;48.558;18.150;2022-07-06T05:04:01;99676.97;;;20.95;67.51
54592;BME280;40488;48.558;18.150;2022-07-06T05:06:31;99674.06;;;21.03;67.49
54592;BME280;40488;48.558;18.150;2022-07-06T05:09:00;99665.09;;;21.11;67.11
54592;BME280;40488;48.558;18.150;2022-07-06T05:11:31;99660.13;;;21.25;66.64
54592;BME280;40488;48.558;18.150;2022-07-06T05:14:00;99652.81;;;21.33;65.97
54592;BME280;40488;48.558;18.150;2022-07-06T05:16:29;99661.97;;;21.42;65.56
54592;BME280;40488;48.558;18.150;2022-07-06T05:18:59;99659.78;;;21.52;64.92
54592;BME280;40488;48.558;18.150;2022-07-06T05:21:29;99659.56;;;21.56;64.74
54592;BME280;40488;48.558;18.150;2022-07-06T05:23:58;99655.22;;;21.57;64.22
54592;BME280;40488;48.558;18.150;2022-07-06T05:26:27;99652.56;;;21.58;63.83
54592;BME280;40488;48.558;18.150;2022-07-06T05:28:56;99660.13;;;21.63;63.51
54592;BME280;40488;48.558;18.150;2022-07-06T05:31:24;99656.34;;;21.70;63.35
54592;BME280;40488;48.558;18.150;2022-07-06T05:33:53;99670.09;;;21.72;63.15
54592;BME280;40488;48.558;18.150;2022-07-06T05:36:21;99660.34;;;21.77;63.23
54592;BME280;40488;48.558;18.150;2022-07-06T05:38:51;99661.09;;;21.79;63.13
54592;BME280;40488;48.558;18.150;2022-07-06T05:41:20;99664.50;;;21.81;62.96
54592;BME280;40488;48.558;18.150;2022-07-06T05:43:54;99673.06;;;21.83;62.79
54592;BME280;40488;48.558;18.150;2022-07-06T05:46:22;99670.41;;;21.84;62.63
54592;BME280;40488;48.558;18.150;2022-07-06T05:48:51;99672.78;;;21.89;62.50
54592;BME280;40488;48.558;18.150;2022-07-06T05:51:30;99665.91;;;21.88;62.18
54592;BME280;40488;48.558;18.150;2022-07-06T05:54:00;99668.97;;;21.96;62.61
54592;BME280;40488;48.558;18.150;2022-07-06T05:56:29;99675.56;;;22.03;62.31
54592;BME280;40488;48.558;18.150;2022-07-06T05:58:59;99674.22;;;22.13;62.13
54592;BME280;40488;48.558;18.150;2022-07-06T06:01:29;99683.19;;;22.25;61.91
54592;BME280;40488;48.558;18.150;2022-07-06T06:04:08;99679.00;;;22.39;61.92
54592;BME280;40488;48.558;18.150;2022-07-06T06:06:37;99685.59;;;22.46;61.29
54592;BME280;40488;48.558;18.150;2022-07-06T06:09:06;99687.28;;;22.47;61.03
54592;BME280;40488;48.558;18.150;2022-07-06T06:11:35;99681.94;;;22.50;60.73
54592;BME280;40488;48.558;18.150;2022-07-06T06:14:04;99684.38;;;22.53;60.63
54592;BME280;40488;48.558;18.150;2022-07-06T06:16:33;99686.56;;;22.62;60.69
54592;BME280;40488;48.558;18.150;2022-07-06T06:19:02;99688.63;;;22.73;60.49
54592;BME280;40488;48.558;18.150;2022-07-06T06:21:31;99692.06;;;22.74;60.01
54592;BME280;40488;48.558;18.150;2022-07-06T06:23:59;99692.38;;;22.85;59.94
54592;BME280;40488;48.558;18.150;2022-07-06T06:26:30;99696.94;;;22.97;59.66
54592;BME280;40488;48.558;18.150;2022-07-06T06:28:59;99694.09;;;23.01;59.07
54592;BME280;40488;48.558;18.150;2022-07-06T06:31:27;99698.03;;;23.10;58.79
54592;BME280;40488;48.558;18.150;2022-07-06T06:33:56;99699.53;;;23.14;58.54
54592;BME280;40488;48.558;18.150;2022-07-06T06:36:25;99711.03;;;23.27;58.63
54592;BME280;40488;48.558;18.150;2022-07-06T06:38:53;99707.97;;;23.36;58.23
54592;BME280;40488;48.558;18.150;2022-07-06T06:41:22;99707.63;;;23.42;57.85
54592;BME280;40488;48.558;18.150;2022-07-06T06:43:52;99715.28;;;23.45;57.54
54592;BME280;40488;48.558;18.150;2022-07-06T06:46:27;99712.38;;;23.51;57.31
54592;BME280;40488;48.558;18.150;2022-07-06T06:48:56;99733.28;;;23.50;56.76
54592;BME280;40488;48.558;18.150;2022-07-06T06:51:24;99721.84;;;23.52;56.66
54592;BME280;40488;48.558;18.150;2022-07-06T06:53:53;99727.16;;;23.66;56.69
54592;BME280;40488;48.558;18.150;2022-07-06T06:56:21;99730.88;;;23.78;56.49
54592;BME280;40488;48.558;18.150;2022-07-06T06:58:50;99732.41;;;23.82;56.00
54592;BME280;40488;48.558;18.150;2022-07-06T07:01:40;99736.38;;;23.89;55.71
54592;BME280;40488;48.558;18.150;2022-07-06T07:04:08;99740.34;;;23.96;55.54
54592;BME280;40488;48.558;18.150;2022-07-06T07:06:37;99743.59;;;23.99;55.46
54592;BME280;40488;48.558;18.150;2022-07-06T07:09:06;99739.59;;;24.10;55.21
54592;BME280;40488;48.558;18.150;2022-07-06T07:11:34;99742.75;;;24.16;55.29
54592;BME280;40488;48.558;18.150;2022-07-06T07:14:03;99738.06;;;24.21;54.78
54592;BME280;40488;48.558;18.150;2022-07-06T07:16:31;99738.84;;;24.23;54.38
54592;BME280;40488;48.558;18.150;2022-07-06T07:19:01;99738.41;;;24.31;54.46
54592;BME280;40488;48.558;18.150;2022-07-06T07:21:30;99737.72;;;24.43;54.19
54592;BME280;40488;48.558;18.150;2022-07-06T07:23:58;99742.44;;;24.52;53.80
54592;BME280;40488;48.558;18.150;2022-07-06T07:26:35;99744.41;;;24.62;53.62
54592;BME280;40488;48.558;18.150;2022-07-06T07:29:04;99749.56;;;24.64;53.72
54592;BME280;40488;48.558;18.150;2022-07-06T07:31:32;99756.63;;;24.62;52.53
54592;BME280;40488;48.558;18.150;2022-07-06T07:34:03;99754.03;;;24.62;52.46
54592;BME280;40488;48.558;18.150;2022-07-06T07:36:31;99754.59;;;24.67;52.34
54592;BME280;40488;48.558;18.150;2022-07-06T07:39:00;99761.16;;;24.74;52.34
54592;BME280;40488;48.558;18.150;2022-07-06T07:41:28;99762.44;;;24.83;52.46
54592;BME280;40488;48.558;18.150;2022-07-06T07:43:57;99756.03;;;24.88;51.46
54592;BME280;40488;48.558;18.150;2022-07-06T07:46:25;99759.41;;;24.90;50.98
54592;BME280;40488;48.558;18.150;2022-07-06T07:48:54;99766.47;;;24.88;51.54
54592;BME280;40488;48.558;18.150;2022-07-06T07:51:25;99760.88;;;24.94;51.47
54592;BME280;40488;48.558;18.150;2022-07-06T07:53:54;99756.72;;;25.06;50.84
54592;BME280;40488;48.558;18.150;2022-07-06T07:56:22;99763.94;;;25.16;50.76
54592;BME280;40488;48.558;18.150;2022-07-06T07:58:50;99762.25;;;25.29;50.60
54592;BME280;40488;48.558;18.150;2022-07-06T08:01:24;99763.22;;;25.43;50.13
54592;BME280;40488;48.558;18.150;2022-07-06T08:03:53;99767.34;;;25.61;50.07
54592;BME280;40488;48.558;18.150;2022-07-06T08:06:21;99766.50;;;25.60;49.56
54592;BME280;40488;48.558;18.150;2022-07-06T08:08:51;99775.94;;;25.63;49.85
54592;BME280;40488;48.558;18.150;2022-07-06T08:11:20;99777.44;;;25.67;49.59
54592;BME280;40488;48.558;18.150;2022-07-06T08:13:49;99782.41;;;25.71;49.27
54592;BME280;40488;48.558;18.150;2022-07-06T08:16:17;99778.31;;;25.67;48.18
54592;BME280;40488;48.558;18.150;2022-07-06T08:18:46;99774.16;;;25.77;48.27
54592;BME280;40488;48.558;18.150;2022-07-06T08:21:15;99773.13;;;25.80;48.14
54592;BME280;40488;48.558;18.150;2022-07-06T08:23:54;99763.25;;;25.71;46.91
54592;BME280;40488;48.558;18.150;2022-07-06T08:26:23;99775.41;;;25.58;47.55
54592;BME280;40488;48.558;18.150;2022-07-06T08:28:52;99782.88;;;25.64;47.43
54592;BME280;40488;48.558;18.150;2022-07-06T08:31:20;99777.25;;;25.70;46.73
54592;BME280;40488;48.558;18.150;2022-07-06T08:34:09;99783.81;;;25.77;46.71
54592;BME280;40488;48.558;18.150;2022-07-06T08:36:38;99778.94;;;25.85;46.38
54592;BME280;40488;48.558;18.150;2022-07-06T08:39:08;99787.50;;;26.01;46.66
54592;BME280;40488;48.558;18.150;2022-07-06T08:41:38;99779.88;;;26.12;46.27
54592;BME280;40488;48.558;18.150;2022-07-06T08:44:09;99786.75;;;26.27;45.52
54592;BME280;40488;48.558;18.150;2022-07-06T08:46:37;99786.72;;;26.41;44.96
54592;BME280;40488;48.558;18.150;2022-07-06T08:49:07;99788.00;;;26.48;44.98
54592;BME280;40488;48.558;18.150;2022-07-06T08:51:35;99780.22;;;26.47;44.75
54592;BME280;40488;48.558;18.150;2022-07-06T08:54:04;99780.69;;;26.53;44.50
54592;BME280;40488;48.558;18.150;2022-07-06T08:56:35;99784.09;;;26.68;44.84
54592;BME280;40488;48.558;18.150;2022-07-06T08:59:04;99782.22;;;26.70;44.43
54592;BME280;40488;48.558;18.150;2022-07-06T09:01:35;99786.88;;;26.79;44.35
54592;BME280;40488;48.558;18.150;2022-07-06T09:04:05;99773.53;;;26.96;43.44
54592;BME280;40488;48.558;18.150;2022-07-06T09:06:35;99780.44;;;27.10;41.96
54592;BME280;40488;48.558;18.150;2022-07-06T09:09:05;99787.38;;;27.23;41.66
54592;BME280;40488;48.558;18.150;2022-07-06T09:11:35;99783.09;;;27.22;42.02
54592;BME280;40488;48.558;18.150;2022-07-06T09:14:04;99766.19;;;27.14;41.69
54592;BME280;40488;48.558;18.150;2022-07-06T09:16:33;99771.44;;;27.26;42.21
54592;BME280;40488;48.558;18.150;2022-07-06T09:19:06;99779.88;;;27.44;42.68
54592;BME280;40488;48.558;18.150;2022-07-06T09:21:36;99779.47;;;27.50;41.99
54592;BME280;40488;48.558;18.150;2022-07-06T09:24:08;99785.75;;;27.48;42.07
54592;BME280;40488;48.558;18.150;2022-07-06T09:26:40;99786.91;;;27.44;42.33
54592;BME280;40488;48.558;18.150;2022-07-06T09:29:09;99793.28;;;27.52;42.27
54592;BME280;40488;48.558;18.150;2022-07-06T09:31:38;99778.84;;;27.59;42.09
54592;BME280;40488;48.558;18.150;2022-07-06T09:34:08;99788.25;;;27.74;42.47
54592;BME280;40488;48.558;18.150;2022-07-06T09:36:40;99785.34;;;27.66;41.68
54592;BME280;40488;48.558;18.150;2022-07-06T09:41:51;99778.00;;;27.71;41.93
54592;BME280;40488;48.558;18.150;2022-07-06T09:44:23;99774.00;;;27.78;41.86
54592;BME280;40488;48.558;18.150;2022-07-06T09:46:53;99781.63;;;27.94;43.77
54592;BME280;40488;48.558;18.150;2022-07-06T09:49:23;99784.03;;;27.97;42.04
54592;BME280;40488;48.558;18.150;2022-07-06T09:51:53;99775.78;;;27.90;41.13
54592;BME280;40488;48.558;18.150;2022-07-06T09:54:22;99770.28;;;27.93;40.99
54592;BME280;40488;48.558;18.150;2022-07-06T09:56:53;99775.53;;;27.93;39.73
54592;BME280;40488;48.558;18.150;2022-07-06T09:59:23;99783.84;;;27.87;39.18
54592;BME280;40488;48.558;18.150;2022-07-06T10:01:52;99781.28;;;27.99;39.19
54592;BME280;40488;48.558;18.150;2022-07-06T10:04:22;99785.03;;;28.20;39.65
54592;BME280;40488;48.558;18.150;2022-07-06T10:06:51;99789.22;;;28.35;39.38
54592;BME280;40488;48.558;18.150;2022-07-06T10:09:20;99786.97;;;28.41;39.92
54592;BME280;40488;48.558;18.150;2022-07-06T10:11:50;99799.94;;;28.32;39.08
54592;BME280;40488;48.558;18.150;2022-07-06T10:14:21;99789.09;;;27.87;39.58
54592;BME280;40488;48.558;18.150;2022-07-06T10:16:51;99796.03;;;27.63;40.39
54592;BME280;40488;48.558;18.150;2022-07-06T10:19:20;99789.13;;;27.50;40.42
54592;BME280;40488;48.558;18.150;2022-07-06T10:21:49;99794.34;;;27.62;40.21
54592;BME280;40488;48.558;18.150;2022-07-06T10:24:20;99797.16;;;27.84;39.38
54592;BME280;40488;48.558;18.150;2022-07-06T10:26:49;99808.84;;;27.80;38.40
54592;BME280;40488;48.558;18.150;2022-07-06T10:29:18;99801.91;;;27.79;38.25
54592;BME280;40488;48.558;18.150;2022-07-06T10:31:49;99804.84;;;27.75;37.85
54592;BME280;40488;48.558;18.150;2022-07-06T10:34:19;99815.34;;;27.62;38.11
54592;BME280;40488;48.558;18.150;2022-07-06T10:36:48;99826.91;;;27.47;38.43
54592;BME280;40488;48.558;18.150;2022-07-06T10:39:31;99856.81;;;27.18;39.31
54592;BME280;40488;48.558;18.150;2022-07-06T10:42:12;99857.97;;;26.46;41.39
54592;BME280;40488;48.558;18.150;2022-07-06T10:45:00;99875.88;;;25.82;43.30
54592;BME280;40488;48.558;18.150;2022-07-06T10:47:31;99882.88;;;25.38;44.07
54592;BME280;40488;48.558;18.150;2022-07-06T10:50:00;99893.34;;;24.92;45.26
54592;BME280;40488;48.558;18.150;2022-07-06T10:55:17;99904.00;;;24.41;49.76
54592;BME280;40488;48.558;18.150;2022-07-06T10:57:56;99911.84;;;23.91;53.61
54592;BME280;40488;48.558;18.150;2022-07-06T11:00:24;99921.44;;;23.39;57.08
54592;BME280;40488;48.558;18.150;2022-07-06T11:02:55;99930.66;;;22.92;59.10
54592;BME280;40488;48.558;18.150;2022-07-06T11:08:23;99919.41;;;22.15;60.97
54592;BME280;40488;48.558;18.150;2022-07-06T11:10:51;99915.94;;;21.76;61.28
54592;BME280;40488;48.558;18.150;2022-07-06T11:13:26;99931.75;;;21.50;61.68
54592;BME280;40488;48.558;18.150;2022-07-06T11:16:00;99940.16;;;21.34;62.50
54592;BME280;40488;48.558;18.150;2022-07-06T11:18:39;99929.66;;;21.38;62.76
54592;BME280;40488;48.558;18.150;2022-07-06T11:21:15;99932.78;;;21.24;63.09
54592;BME280;40488;48.558;18.150;2022-07-06T11:23:45;99939.09;;;21.18;63.67
54592;BME280;40488;48.558;18.150;2022-07-06T11:26:14;99936.63;;;21.15;64.04
54592;BME280;40488;48.558;18.150;2022-07-06T11:28:44;99929.22;;;21.26;64.42
54592;BME280;40488;48.558;18.150;2022-07-06T11:31:14;99918.16;;;21.43;64.71
54592;BME280;40488;48.558;18.150;2022-07-06T11:33:46;99933.38;;;21.52;64.67
54592;BME280;40488;48.558;18.150;2022-07-06T11:36:15;99929.25;;;21.68;64.41
54592;BME280;40488;48.558;18.150;2022-07-06T11:38:45;99924.38;;;21.81;63.84
54592;BME280;40488;48.558;18.150;2022-07-06T11:41:14;99925.03;;;22.06;63.55
54592;BME280;40488;48.558;18.150;2022-07-06T11:43:43;99918.63;;;22.33;62.91
54592;BME280;40488;48.558;18.150;2022-07-06T11:46:23;99917.56;;;22.56;61.87
54592;BME280;40488;48.558;18.150;2022-07-06T11:48:53;99911.03;;;22.85;60.72
54592;BME280;40488;48.558;18.150;2022-07-06T11:51:23;99912.94;;;23.17;60.11
54592;BME280;40488;48.558;18.150;2022-07-06T11:53:54;99904.31;;;23.33;58.89
54592;BME280;40488;48.558;18.150;2022-07-06T11:56:23;99905.16;;;23.34;58.11
54592;BME280;40488;48.558;18.150;2022-07-06T11:58:54;99900.44;;;23.59;58.04
54592;BME280;40488;48.558;18.150;2022-07-06T12:01:23;99900.53;;;23.75;57.09
54592;BME280;40488;48.558;18.150;2022-07-06T12:03:56;99902.75;;;23.82;56.22
54592;BME280;40488;48.558;18.150;2022-07-06T12:06:26;99905.78;;;23.90;55.79
54592;BME280;40488;48.558;18.150;2022-07-06T12:08:55;99896.09;;;24.10;55.30
54592;BME280;40488;48.558;18.150;2022-07-06T12:11:24;99893.13;;;24.33;54.71
54592;BME280;40488;48.558;18.150;2022-07-06T12:13:54;99889.28;;;24.40;54.12
54592;BME280;40488;48.558;18.150;2022-07-06T12:16:28;99891.09;;;24.38;53.12
54592;BME280;40488;48.558;18.150;2022-07-06T12:18:59;99891.97;;;24.54;52.61
54592;BME280;40488;48.558;18.150;2022-07-06T12:21:33;99887.41;;;24.57;51.50
54592;BME280;40488;48.558;18.150;2022-07-06T12:24:05;99892.13;;;24.51;51.39
54592;BME280;40488;48.558;18.150;2022-07-06T12:26:38;99885.06;;;24.53;51.28
54592;BME280;40488;48.558;18.150;2022-07-06T12:29:07;99882.91;;;24.77;51.46
54592;BME280;40488;48.558;18.150;2022-07-06T12:31:38;99875.28;;;25.03;51.01
54592;BME280;40488;48.558;18.150;2022-07-06T12:34:13;99873.88;;;25.27;50.09
54592;BME280;40488;48.558;18.150;2022-07-06T12:36:43;99873.53;;;25.34;49.33
54592;BME280;40488;48.558;18.150;2022-07-06T12:39:12;99869.13;;;25.50;48.90
54592;BME280;40488;48.558;18.150;2022-07-06T12:41:45;99864.38;;;25.56;47.53
54592;BME280;40488;48.558;18.150;2022-07-06T12:44:15;99864.84;;;25.63;46.97
54592;BME280;40488;48.558;18.150;2022-07-06T12:46:44;99869.91;;;25.66;46.02
54592;BME280;40488;48.558;18.150;2022-07-06T12:49:16;99862.63;;;25.71;45.34
54592;BME280;40488;48.558;18.150;2022-07-06T12:54:25;99848.81;;;25.69;43.57
54592;BME280;40488;48.558;18.150;2022-07-06T12:59:35;99841.53;;;25.74;43.50
54592;BME280;40488;48.558;18.150;2022-07-06T13:02:04;99843.56;;;25.83;43.42
54592;BME280;40488;48.558;18.150;2022-07-06T13:04:34;99842.25;;;26.04;43.16
54592;BME280;40488;48.558;18.150;2022-07-06T13:07:03;99843.00;;;26.06;41.32
54592;BME280;40488;48.558;18.150;2022-07-06T13:09:34;99833.69;;;26.16;40.79
54592;BME280;40488;48.558;18.150;2022-07-06T13:12:03;99830.69;;;26.22;40.89
54592;BME280;40488;48.558;18.150;2022-07-06T13:14:31;99828.28;;;26.19;40.41
54592;BME280;40488;48.558;18.150;2022-07-06T13:17:00;99833.09;;;26.25;40.12
54592;BME280;40488;48.558;18.150;2022-07-06T13:19:29;99829.75;;;26.23;39.63